Simms, Montana
Current Conditions -  °F | °C
As of 12:53 AM on Tuesday 21 Oct 2014 (Local Time) from KGTF Reporting Station
Clear Clear  
Wind Chill: 61°   Ceiling: Unl
Heat Index: 61°   Visibility: 10mi
Dew Point: 34°   Wind: 15mph
Humidity: 36%   Direction: 190°S
Pressure: 29.68"   Gusts: NA
Location:  47.5°N, 111.93°W
Report Text: KGTF 210653Z 19013KT 10SM CLR 16/01 A2968 RMK AO2 SLP022 T01610011 402560117
Loading
Personal Weather Stations






























Interactive Weather Map
Tropical Storm Tracking
New forecast layout! Learn more

10-Day Weather Forecast

Advertisements
Track Severe Weather on mobile